createdAt,value
2018-10-12T00:00:32.868Z,1009.42
2018-10-12T00:01:32.799Z,1009.38
2018-10-12T00:02:32.720Z,1009.40
2018-10-12T00:03:32.646Z,1009.40
2018-10-12T00:04:32.580Z,1009.37
2018-10-12T00:05:32.505Z,1009.35
2018-10-12T00:06:32.433Z,1009.37
2018-10-12T00:07:32.356Z,1009.37
2018-10-12T00:08:32.284Z,1009.38
2018-10-12T00:09:32.212Z,1009.37
2018-10-12T00:10:32.140Z,1009.41
2018-10-12T00:11:32.069Z,1009.40
2018-10-12T00:12:31.995Z,1009.37
2018-10-12T00:13:31.920Z,1009.40
2018-10-12T00:14:31.850Z,1009.40
2018-10-12T00:15:31.777Z,1009.35
2018-10-12T00:16:31.704Z,1009.32
2018-10-12T00:17:31.630Z,1009.35
2018-10-12T00:18:31.558Z,1009.35
2018-10-12T00:19:31.487Z,1009.35
2018-10-12T00:20:31.416Z,1009.37
2018-10-12T00:21:31.339Z,1009.34
2018-10-12T00:22:31.268Z,1009.33
2018-10-12T00:23:31.194Z,1009.30
2018-10-12T00:24:31.123Z,1009.34
2018-10-12T00:25:31.051Z,1009.30
2018-10-12T00:26:30.978Z,1009.31
2018-10-12T00:27:30.903Z,1009.29
2018-10-12T00:28:30.831Z,1009.30
2018-10-12T00:29:30.759Z,1009.33
2018-10-12T00:30:30.726Z,1009.35
2018-10-12T00:31:30.612Z,1009.38
2018-10-12T00:32:30.540Z,1009.40
2018-10-12T00:33:30.467Z,1009.41
2018-10-12T00:34:30.396Z,1009.42
2018-10-12T00:35:30.321Z,1009.39
2018-10-12T00:36:30.251Z,1009.35
2018-10-12T00:37:30.180Z,1009.37
2018-10-12T00:38:30.103Z,1009.36
2018-10-12T00:39:30.032Z,1009.32
2018-10-12T00:40:29.957Z,1009.34
2018-10-12T00:41:29.883Z,1009.37
2018-10-12T00:42:29.812Z,1009.40
2018-10-12T00:43:29.739Z,1009.45
2018-10-12T00:44:29.666Z,1009.42
2018-10-12T00:45:29.594Z,1009.41
2018-10-12T00:46:29.524Z,1009.46
2018-10-12T00:47:29.448Z,1009.48
2018-10-12T00:48:29.377Z,1009.49
2018-10-12T00:49:29.302Z,1009.52
2018-10-12T00:50:29.230Z,1009.53
2018-10-12T00:51:29.159Z,1009.54
2018-10-12T00:52:29.084Z,1009.60
2018-10-12T00:53:29.011Z,1009.60
2018-10-12T00:54:28.939Z,1009.61
2018-10-12T00:55:28.866Z,1009.67
2018-10-12T00:56:28.795Z,1009.67
2018-10-12T00:57:28.729Z,1009.66
2018-10-12T00:58:28.648Z,1009.71
2018-10-12T00:59:28.572Z,1009.71
2018-10-12T01:00:28.506Z,1009.78
2018-10-12T01:01:28.429Z,1009.81
2018-10-12T01:02:28.356Z,1009.82
2018-10-12T01:03:28.284Z,1009.84
2018-10-12T01:04:28.211Z,1009.87
2018-10-12T01:05:28.145Z,1009.93
2018-10-12T01:06:28.110Z,1009.92
2018-10-12T01:07:27.994Z,1009.95
2018-10-12T01:08:27.920Z,1009.96
2018-10-12T01:09:27.848Z,1009.96
2018-10-12T01:10:27.773Z,1009.92
2018-10-12T01:11:27.704Z,1009.97
2018-10-12T01:12:27.627Z,1009.99
2018-10-12T01:13:27.558Z,1009.95
2018-10-12T01:14:27.483Z,1010.00
2018-10-12T01:15:27.410Z,1009.99
2018-10-12T01:16:27.338Z,1010.05
2018-10-12T01:17:27.264Z,1010.05
2018-10-12T01:18:27.191Z,1010.08
2018-10-12T01:19:27.117Z,1010.10
2018-10-12T01:20:27.045Z,1010.11
2018-10-12T01:21:26.976Z,1010.05
2018-10-12T01:22:26.898Z,1010.05
2018-10-12T01:23:26.824Z,1010.08
2018-10-12T01:24:26.751Z,1010.07
2018-10-12T01:25:26.684Z,1010.05
2018-10-12T01:26:26.606Z,1010.10
2018-10-12T01:27:26.533Z,1010.09
2018-10-12T01:28:26.463Z,1010.07
2018-10-12T01:29:26.388Z,1010.04
2018-10-12T01:30:26.314Z,1010.11
2018-10-12T01:31:26.242Z,1010.04
2018-10-12T01:32:26.172Z,1010.02
2018-10-12T01:33:26.095Z,1010.01
2018-10-12T01:34:26.025Z,1010.07
2018-10-12T01:35:25.950Z,1010.09
2018-10-12T01:36:25.876Z,1010.11
2018-10-12T01:37:25.802Z,1010.10
2018-10-12T01:38:25.730Z,1010.04
2018-10-12T01:39:25.657Z,1010.01
2018-10-12T01:40:25.581Z,1009.96
2018-10-12T01:41:25.511Z,1009.99
2018-10-12T01:42:25.437Z,1010.01
2018-10-12T01:43:25.366Z,1010.02
2018-10-12T01:44:25.292Z,1010.07
2018-10-12T01:45:25.219Z,1010.04
2018-10-12T01:46:25.144Z,1009.99
2018-10-12T01:47:25.070Z,1009.99
2018-10-12T01:48:25.000Z,1009.97
2018-10-12T01:49:24.925Z,1009.95
2018-10-12T01:50:24.853Z,1009.96
2018-10-12T01:51:24.778Z,1009.95
2018-10-12T01:52:24.709Z,1009.97
2018-10-12T01:53:24.633Z,1009.95
2018-10-12T01:54:24.560Z,1009.92
2018-10-12T01:55:24.488Z,1009.92
2018-10-12T01:56:24.412Z,1009.89
2018-10-12T01:57:24.340Z,1009.91
2018-10-12T01:58:24.267Z,1009.89
2018-10-12T01:59:24.195Z,1009.92
2018-10-12T02:00:24.121Z,1009.96
2018-10-12T02:01:24.052Z,1009.96
2018-10-12T02:02:23.973Z,1009.98
2018-10-12T02:03:23.904Z,1010.00
2018-10-12T02:04:23.829Z,1009.95
2018-10-12T02:05:23.752Z,1009.97
2018-10-12T02:06:23.680Z,1009.96
2018-10-12T02:07:23.606Z,1010.00
2018-10-12T02:08:23.537Z,1009.99
2018-10-12T02:09:23.462Z,1009.99
2018-10-12T02:10:23.388Z,1010.01
2018-10-12T02:11:23.311Z,1009.98
2018-10-12T02:12:23.244Z,1010.00
2018-10-12T02:13:23.168Z,1010.04
2018-10-12T02:14:23.095Z,1010.03
2018-10-12T02:15:23.025Z,1010.11
2018-10-12T02:16:22.945Z,1010.15
2018-10-12T02:17:22.875Z,1010.16
2018-10-12T02:18:22.801Z,1010.21
2018-10-12T02:19:22.727Z,1010.23
2018-10-12T02:20:22.653Z,1010.29
2018-10-12T02:21:22.586Z,1010.30
2018-10-12T02:22:22.508Z,1010.30
2018-10-12T02:23:22.439Z,1010.31
2018-10-12T02:24:22.361Z,1010.30
2018-10-12T02:25:22.288Z,1010.29
2018-10-12T02:26:22.217Z,1010.27
2018-10-12T02:27:22.141Z,1010.30
2018-10-12T02:28:22.070Z,1010.31
2018-10-12T02:29:21.996Z,1010.28
2018-10-12T02:30:21.926Z,1010.30
2018-10-12T02:31:21.849Z,1010.29
2018-10-12T02:32:21.774Z,1010.32
2018-10-12T02:33:21.703Z,1010.38
2018-10-12T02:34:21.630Z,1010.41
2018-10-12T02:35:21.559Z,1010.36
2018-10-12T02:36:21.483Z,1010.35
2018-10-12T02:37:21.412Z,1010.35
2018-10-12T02:38:21.336Z,1010.37
2018-10-12T02:39:21.267Z,1010.38
2018-10-12T02:40:21.192Z,1010.35
2018-10-12T02:41:21.117Z,1010.35
2018-10-12T02:42:21.048Z,1010.35
2018-10-12T02:43:20.973Z,1010.35
2018-10-12T02:44:20.897Z,1010.37
2018-10-12T02:45:20.825Z,1010.35
2018-10-12T02:46:20.754Z,1010.35
2018-10-12T02:47:20.679Z,1010.32
2018-10-12T02:48:20.604Z,1010.31
2018-10-12T02:49:20.533Z,1010.28
2018-10-12T02:50:20.457Z,1010.29
2018-10-12T02:51:20.392Z,1010.32
2018-10-12T02:52:20.316Z,1010.36
2018-10-12T02:53:20.241Z,1010.35
2018-10-12T02:54:20.165Z,1010.36
2018-10-12T02:55:20.092Z,1010.34
2018-10-12T02:56:20.021Z,1010.35
2018-10-12T02:57:19.947Z,1010.35
2018-10-12T02:58:19.875Z,1010.36
2018-10-12T02:59:19.800Z,1010.42
2018-10-12T03:00:19.730Z,1010.42
2018-10-12T03:01:19.655Z,1010.53
2018-10-12T03:02:19.579Z,1010.52
2018-10-12T03:03:19.507Z,1010.60
2018-10-12T03:04:19.434Z,1010.65
2018-10-12T03:05:19.359Z,1010.60
2018-10-12T03:06:19.288Z,1010.60
2018-10-12T03:07:19.214Z,1010.60
2018-10-12T03:08:19.140Z,1010.64
2018-10-12T03:09:19.066Z,1010.62
2018-10-12T03:10:18.998Z,1010.62
2018-10-12T03:11:18.920Z,1010.63
2018-10-12T03:12:18.848Z,1010.62
2018-10-12T03:13:18.774Z,1010.64
2018-10-12T03:14:18.700Z,1010.67
2018-10-12T03:15:18.635Z,1010.70
2018-10-12T03:16:18.559Z,1010.70
2018-10-12T03:17:18.480Z,1010.70
2018-10-12T03:18:18.408Z,1010.78
2018-10-12T03:19:18.332Z,1010.75
2018-10-12T03:20:18.265Z,1010.74
2018-10-12T03:21:18.187Z,1010.77
2018-10-12T03:22:18.116Z,1010.82
2018-10-12T03:23:18.040Z,1010.81
2018-10-12T03:24:17.967Z,1010.87
2018-10-12T03:25:17.896Z,1010.92
2018-10-12T03:26:17.821Z,1010.92
2018-10-12T03:27:17.747Z,1010.95
2018-10-12T03:28:17.672Z,1010.97
2018-10-12T03:29:17.607Z,1010.97
2018-10-12T03:30:17.540Z,1010.96
2018-10-12T03:31:17.460Z,1010.97
2018-10-12T03:32:17.380Z,1010.93
2018-10-12T03:33:17.307Z,1011.01
2018-10-12T03:34:17.238Z,1011.02
2018-10-12T03:35:17.160Z,1011.06
2018-10-12T03:36:17.089Z,1011.08
2018-10-12T03:37:17.076Z,1011.07
2018-10-12T03:38:16.942Z,1011.07
2018-10-12T03:39:16.867Z,1011.04
2018-10-12T03:40:16.794Z,1011.03
2018-10-12T03:41:16.726Z,1011.01
2018-10-12T03:42:16.650Z,1011.01
2018-10-12T03:43:16.576Z,1010.98
2018-10-12T03:44:16.502Z,1010.98
2018-10-12T03:45:16.432Z,1010.96
2018-10-12T03:46:16.357Z,1010.97
2018-10-12T03:47:16.280Z,1010.98
2018-10-12T03:48:16.209Z,1010.94
2018-10-12T03:49:16.138Z,1011.01
2018-10-12T03:50:16.069Z,1011.04
2018-10-12T03:51:15.989Z,1011.11
2018-10-12T03:52:15.912Z,1011.09
2018-10-12T03:53:15.847Z,1011.10
2018-10-12T03:54:15.769Z,1011.10
2018-10-12T03:55:15.695Z,1011.10
2018-10-12T03:56:15.623Z,1011.10
2018-10-12T03:57:15.553Z,1011.13
2018-10-12T03:58:15.477Z,1011.18
2018-10-12T03:59:15.407Z,1011.20
2018-10-12T04:00:15.333Z,1011.20
2018-10-12T04:01:15.258Z,1011.21
2018-10-12T04:02:15.187Z,1011.16
2018-10-12T04:03:15.110Z,1011.18
2018-10-12T04:04:15.036Z,1011.15
2018-10-12T04:05:14.963Z,1011.14
2018-10-12T04:06:14.892Z,1011.16
2018-10-12T04:07:14.829Z,1011.16
2018-10-12T04:08:14.750Z,1011.23
2018-10-12T04:09:14.672Z,1011.24
2018-10-12T04:10:14.600Z,1011.22
2018-10-12T04:11:14.525Z,1011.23
2018-10-12T04:12:14.453Z,1011.27
2018-10-12T04:13:14.380Z,1011.21
2018-10-12T04:14:14.307Z,1011.22
2018-10-12T04:15:14.232Z,1011.26
2018-10-12T04:16:14.158Z,1011.26
2018-10-12T04:17:14.084Z,1011.29
2018-10-12T04:18:14.016Z,1011.27
2018-10-12T04:19:13.941Z,1011.29
2018-10-12T04:20:13.865Z,1011.31
2018-10-12T04:21:13.792Z,1011.36
2018-10-12T04:22:13.767Z,1011.37
2018-10-12T04:23:13.647Z,1011.46
2018-10-12T04:24:13.575Z,1011.49
2018-10-12T04:25:13.497Z,1011.48
2018-10-12T04:26:13.428Z,1011.47
2018-10-12T04:27:13.353Z,1011.47
2018-10-12T04:28:13.287Z,1011.49
2018-10-12T04:29:13.208Z,1011.45
2018-10-12T04:30:13.136Z,1011.46
2018-10-12T04:31:13.061Z,1011.48
2018-10-12T04:32:12.988Z,1011.47
2018-10-12T04:33:12.914Z,1011.48
2018-10-12T04:34:12.841Z,1011.44
2018-10-12T04:35:12.767Z,1011.48
2018-10-12T04:36:12.694Z,1011.47
2018-10-12T04:37:12.628Z,1011.48
2018-10-12T04:38:12.546Z,1011.50
2018-10-12T04:39:12.476Z,1011.49
2018-10-12T04:40:12.402Z,1011.49
2018-10-12T04:41:12.330Z,1011.54
2018-10-12T04:42:12.261Z,1011.56
2018-10-12T04:43:12.183Z,1011.55
2018-10-12T04:44:12.111Z,1011.53
2018-10-12T04:45:12.038Z,1011.58
2018-10-12T04:46:11.964Z,1011.60
2018-10-12T04:47:11.968Z,1011.64
2018-10-12T04:48:11.819Z,1011.60
2018-10-12T04:49:11.748Z,1011.61
2018-10-12T04:50:11.673Z,1011.63
2018-10-12T04:51:11.599Z,1011.59
2018-10-12T04:52:11.528Z,1011.56
2018-10-12T04:53:11.454Z,1011.58
2018-10-12T04:54:11.380Z,1011.63
2018-10-12T04:55:11.314Z,1011.62
2018-10-12T04:56:11.236Z,1011.65
2018-10-12T04:57:11.163Z,1011.71
2018-10-12T04:58:11.090Z,1011.72
2018-10-12T04:59:11.018Z,1011.76
2018-10-12T05:00:10.947Z,1011.80
2018-10-12T05:01:10.957Z,1011.83
2018-10-12T05:02:10.798Z,1011.84
2018-10-12T05:03:10.732Z,1011.84
2018-10-12T05:04:10.654Z,1011.86
2018-10-12T05:05:10.580Z,1011.89
2018-10-12T05:06:10.507Z,1011.90
2018-10-12T05:07:10.433Z,1011.88
2018-10-12T05:08:10.361Z,1011.91
2018-10-12T05:09:10.291Z,1011.90
2018-10-12T05:10:10.212Z,1011.86
2018-10-12T05:11:10.144Z,1011.93
2018-10-12T05:12:10.070Z,1011.94
2018-10-12T05:13:10.004Z,1011.96
2018-10-12T05:14:09.927Z,1011.98
2018-10-12T05:15:09.856Z,1011.99
2018-10-12T05:16:09.779Z,1012.02
2018-10-12T05:17:09.707Z,1012.01
2018-10-12T05:18:09.633Z,1012.02
2018-10-12T05:19:09.558Z,1012.01
2018-10-12T05:20:09.489Z,1012.03
2018-10-12T05:21:09.421Z,1012.03
2018-10-12T05:22:09.426Z,1012.09
2018-10-12T05:23:09.271Z,1012.07
2018-10-12T05:24:09.196Z,1012.14
2018-10-12T05:25:09.122Z,1012.18
2018-10-12T05:26:09.050Z,1012.14
2018-10-12T05:27:08.978Z,1012.14
2018-10-12T05:28:08.905Z,1012.15
2018-10-12T05:29:08.832Z,1012.20
2018-10-12T05:30:08.813Z,1012.21
2018-10-12T05:31:08.687Z,1012.18
2018-10-12T05:32:08.617Z,1012.21
2018-10-12T05:33:08.543Z,1012.22
2018-10-12T05:34:08.470Z,1012.22
2018-10-12T05:35:08.400Z,1012.21
2018-10-12T05:36:08.421Z,1012.18
2018-10-12T05:37:08.251Z,1012.23
2018-10-12T05:38:08.178Z,1012.27
2018-10-12T05:39:08.106Z,1012.29
2018-10-12T05:40:08.038Z,1012.27
2018-10-12T05:41:07.961Z,1012.27
2018-10-12T05:42:07.888Z,1012.29
2018-10-12T05:43:07.881Z,1012.32
2018-10-12T05:44:07.743Z,1012.29
2018-10-12T05:45:07.671Z,1012.28
2018-10-12T05:46:07.596Z,1012.31
2018-10-12T05:47:07.519Z,1012.31
2018-10-12T05:48:07.453Z,1012.35
2018-10-12T05:49:07.378Z,1012.34
2018-10-12T05:50:07.305Z,1012.35
2018-10-12T05:51:07.235Z,1012.36
2018-10-12T05:52:07.162Z,1012.37
2018-10-12T05:53:07.086Z,1012.40
2018-10-12T05:54:07.015Z,1012.45
2018-10-12T05:55:06.942Z,1012.45
2018-10-12T05:56:06.868Z,1012.45
2018-10-12T05:57:06.795Z,1012.49
2018-10-12T05:58:06.721Z,1012.45
2018-10-12T05:59:06.649Z,1012.44
2018-10-12T06:00:06.580Z,1012.46
2018-10-12T06:01:06.514Z,1012.47
2018-10-12T06:02:06.430Z,1012.42
2018-10-12T06:03:06.357Z,1012.44
2018-10-12T06:04:06.284Z,1012.47
2018-10-12T06:05:06.211Z,1012.42
2018-10-12T06:06:06.140Z,1012.52
2018-10-12T06:07:06.068Z,1012.48
2018-10-12T06:08:06.004Z,1012.51
2018-10-12T06:09:05.921Z,1012.52
2018-10-12T06:10:05.910Z,1012.55
2018-10-12T06:11:05.774Z,1012.52
2018-10-12T06:12:05.701Z,1012.53
2018-10-12T06:13:05.632Z,1012.52
2018-10-12T06:14:05.555Z,1012.53
2018-10-12T06:15:05.481Z,1012.59
2018-10-12T06:16:05.411Z,1012.59
2018-10-12T06:17:05.336Z,1012.59
2018-10-12T06:18:05.264Z,1012.53
2018-10-12T06:19:05.192Z,1012.56
2018-10-12T06:20:05.119Z,1012.55
2018-10-12T06:21:05.045Z,1012.53
2018-10-12T06:22:04.971Z,1012.58
2018-10-12T06:23:04.897Z,1012.56
2018-10-12T06:24:04.827Z,1012.57
2018-10-12T06:25:04.756Z,1012.60
2018-10-12T06:26:04.680Z,1012.65
2018-10-12T06:27:04.623Z,1012.69
2018-10-12T06:28:04.536Z,1012.75
2018-10-12T06:29:04.469Z,1012.77
2018-10-12T06:30:04.389Z,1012.76
2018-10-12T06:31:04.318Z,1012.73
2018-10-12T06:32:04.255Z,1012.77
2018-10-12T06:33:04.207Z,1012.77
2018-10-12T06:34:04.101Z,1012.79
2018-10-12T06:35:04.033Z,1012.83
2018-10-12T06:36:03.957Z,1012.88
2018-10-12T06:37:03.878Z,1012.92
2018-10-12T06:38:03.816Z,1012.99
2018-10-12T06:39:03.736Z,1013.03
2018-10-12T06:40:03.662Z,1013.07
2018-10-12T06:41:03.686Z,1013.13
2018-10-12T06:42:03.515Z,1013.14
2018-10-12T06:43:03.451Z,1013.17
2018-10-12T06:44:03.371Z,1013.21
2018-10-12T06:45:03.299Z,1013.23
2018-10-12T06:46:03.224Z,1013.22
2018-10-12T06:47:03.154Z,1013.24
2018-10-12T06:48:03.084Z,1013.25
2018-10-12T06:49:03.009Z,1013.34
2018-10-12T06:50:02.938Z,1013.37
2018-10-12T06:51:02.863Z,1013.40
2018-10-12T06:52:02.789Z,1013.40
2018-10-12T06:53:02.718Z,1013.38
2018-10-12T06:54:02.716Z,1013.43
2018-10-12T06:55:02.578Z,1013.46
2018-10-12T06:56:02.503Z,1013.49
2018-10-12T06:57:02.429Z,1013.48
2018-10-12T06:58:02.356Z,1013.55
2018-10-12T06:59:02.285Z,1013.52
2018-10-12T07:00:02.310Z,1013.57
2018-10-12T07:01:02.139Z,1013.56
2018-10-12T07:02:02.071Z,1013.60
2018-10-12T07:03:01.993Z,1013.63
2018-10-12T07:04:01.923Z,1013.63
2018-10-12T07:05:01.851Z,1013.64
2018-10-12T07:06:01.777Z,1013.65
2018-10-12T07:07:01.705Z,1013.65
2018-10-12T07:08:01.678Z,1013.65
2018-10-12T07:09:01.559Z,1013.64
2018-10-12T07:10:01.490Z,1013.66
2018-10-12T07:11:01.414Z,1013.68
2018-10-12T07:12:01.344Z,1013.71
2018-10-12T07:13:01.274Z,1013.68
2018-10-12T07:14:01.200Z,1013.72
2018-10-12T07:15:01.126Z,1013.70
2018-10-12T07:16:01.054Z,1013.73
2018-10-12T07:17:00.983Z,1013.76
2018-10-12T07:18:00.911Z,1013.74
2018-10-12T07:19:00.838Z,1013.78
2018-10-12T07:20:00.765Z,1013.81
2018-10-12T07:21:00.687Z,1013.78
2018-10-12T07:22:00.621Z,1013.84
2018-10-12T07:23:00.550Z,1013.84
2018-10-12T07:24:00.470Z,1013.85
2018-10-12T07:25:00.411Z,1013.86
2018-10-12T07:26:00.413Z,1013.87
2018-10-12T07:27:00.259Z,1013.89
2018-10-12T07:28:00.189Z,1013.84
2018-10-12T07:29:00.115Z,1013.87
2018-10-12T07:30:00.044Z,1013.87
2018-10-12T07:30:59.971Z,1013.90
2018-10-12T07:31:59.901Z,1013.94
2018-10-12T07:32:59.826Z,1013.95
2018-10-12T07:33:59.753Z,1013.93
2018-10-12T07:34:59.681Z,1013.92
2018-10-12T07:35:59.611Z,1013.96
2018-10-12T07:36:59.564Z,1013.95
2018-10-12T07:37:59.467Z,1013.93
2018-10-12T07:38:59.397Z,1013.93
2018-10-12T07:39:59.326Z,1013.97
2018-10-12T07:40:59.252Z,1013.99
2018-10-12T07:41:59.179Z,1014.01
2018-10-12T07:42:59.107Z,1013.97
2018-10-12T07:43:59.035Z,1014.05
2018-10-12T07:44:58.961Z,1014.04
2018-10-12T07:45:58.887Z,1014.07
2018-10-12T07:46:58.819Z,1014.10
2018-10-12T07:47:58.806Z,1014.11
2018-10-12T07:48:58.673Z,1014.14
2018-10-12T07:49:58.606Z,1014.14
2018-10-12T07:50:58.529Z,1014.16
2018-10-12T07:51:58.459Z,1014.17
2018-10-12T07:52:58.385Z,1014.20
2018-10-12T07:53:58.320Z,1014.20
2018-10-12T07:54:58.241Z,1014.19
2018-10-12T07:55:58.168Z,1014.22
2018-10-12T07:56:58.097Z,1014.25
2018-10-12T07:57:58.122Z,1014.31
2018-10-12T07:58:57.953Z,1014.28
2018-10-12T07:59:57.935Z,1014.31
2018-10-12T08:00:57.811Z,1014.31
2018-10-12T08:01:57.741Z,1014.27
2018-10-12T08:02:57.666Z,1014.32
2018-10-12T08:03:57.595Z,1014.33
2018-10-12T08:04:57.524Z,1014.35
2018-10-12T08:05:57.452Z,1014.34
2018-10-12T08:06:57.380Z,1014.34
2018-10-12T08:07:57.309Z,1014.31
2018-10-12T08:08:57.240Z,1014.28
2018-10-12T08:09:57.168Z,1014.31
2018-10-12T08:10:57.095Z,1014.36
2018-10-12T08:11:57.021Z,1014.31
2018-10-12T08:12:56.949Z,1014.34
2018-10-12T08:13:56.993Z,1014.31
2018-10-12T08:14:56.806Z,1014.35
2018-10-12T08:15:56.732Z,1014.35
2018-10-12T08:16:56.675Z,1014.36
2018-10-12T08:17:56.589Z,1014.32
2018-10-12T08:18:56.521Z,1014.35
2018-10-12T08:19:56.449Z,1014.37
2018-10-12T08:20:56.380Z,1014.35
2018-10-12T08:21:56.306Z,1014.41
2018-10-12T08:22:56.236Z,1014.37
2018-10-12T08:23:56.164Z,1014.35
2018-10-12T08:24:56.094Z,1014.33
2018-10-12T08:25:56.020Z,1014.30
2018-10-12T08:26:56.001Z,1014.36
2018-10-12T08:27:55.878Z,1014.32
2018-10-12T08:28:55.808Z,1014.31
2018-10-12T08:29:55.739Z,1014.27
2018-10-12T08:30:55.664Z,1014.30
2018-10-12T08:31:55.598Z,1014.29
2018-10-12T08:32:55.540Z,1014.32
2018-10-12T08:33:55.452Z,1014.27
2018-10-12T08:34:55.380Z,1014.25
2018-10-12T08:35:55.308Z,1014.29
2018-10-12T08:36:55.240Z,1014.29
2018-10-12T08:37:55.168Z,1014.34
2018-10-12T08:38:55.096Z,1014.34
2018-10-12T08:39:55.025Z,1014.34
2018-10-12T08:40:54.954Z,1014.36
2018-10-12T08:41:54.936Z,1014.42
2018-10-12T08:42:54.813Z,1014.42
2018-10-12T08:43:54.741Z,1014.43
2018-10-12T08:44:54.670Z,1014.43
2018-10-12T08:45:54.600Z,1014.39
2018-10-12T08:46:54.529Z,1014.41
2018-10-12T08:47:54.460Z,1014.45
2018-10-12T08:48:54.387Z,1014.44
2018-10-12T08:49:54.317Z,1014.45
2018-10-12T08:50:54.246Z,1014.48
2018-10-12T08:51:54.178Z,1014.51
2018-10-12T08:52:54.105Z,1014.51
2018-10-12T08:53:54.036Z,1014.52
2018-10-12T08:54:53.963Z,1014.50
2018-10-12T08:55:53.926Z,1014.52
2018-10-12T08:56:53.823Z,1014.54
2018-10-12T08:57:53.757Z,1014.55
2018-10-12T08:58:53.684Z,1014.57
2018-10-12T08:59:53.613Z,1014.62
2018-10-12T09:00:53.545Z,1014.62
2018-10-12T09:01:53.472Z,1014.61
2018-10-12T09:02:53.460Z,1014.65
2018-10-12T09:03:53.333Z,1014.65
2018-10-12T09:04:53.260Z,1014.61
2018-10-12T09:05:53.196Z,1014.64
2018-10-12T09:06:53.116Z,1014.64
2018-10-12T09:07:53.051Z,1014.67
2018-10-12T09:08:52.980Z,1014.69
2018-10-12T09:09:52.945Z,1014.67
2018-10-12T09:10:52.840Z,1014.70
2018-10-12T09:11:52.769Z,1014.66
2018-10-12T09:12:52.699Z,1014.67
2018-10-12T09:13:52.628Z,1014.64
2018-10-12T09:14:52.558Z,1014.66
2018-10-12T09:15:52.488Z,1014.67
2018-10-12T09:16:52.421Z,1014.64
2018-10-12T09:17:52.362Z,1014.66
2018-10-12T09:18:52.278Z,1014.66
2018-10-12T09:19:52.213Z,1014.66
2018-10-12T09:20:52.213Z,1014.68
2018-10-12T09:21:52.115Z,1014.64
2018-10-12T09:22:51.999Z,1014.66
2018-10-12T09:23:51.929Z,1014.63
2018-10-12T09:24:51.859Z,1014.67
2018-10-12T09:25:51.790Z,1014.68
2018-10-12T09:26:51.720Z,1014.66
2018-10-12T09:27:51.649Z,1014.64
2018-10-12T09:28:51.578Z,1014.67
2018-10-12T09:29:51.514Z,1014.70
2018-10-12T09:30:51.442Z,1014.68
2018-10-12T09:31:51.371Z,1014.67
2018-10-12T09:32:51.299Z,1014.65
2018-10-12T09:33:51.233Z,1014.65
2018-10-12T09:34:51.159Z,1014.69
2018-10-12T09:35:51.093Z,1014.66
2018-10-12T09:36:51.053Z,1014.60
2018-10-12T09:37:50.952Z,1014.60
2018-10-12T09:38:50.883Z,1014.59
2018-10-12T09:39:50.811Z,1014.59
2018-10-12T09:40:50.744Z,1014.58
2018-10-12T09:41:50.674Z,1014.58
2018-10-12T09:42:50.602Z,1014.56
2018-10-12T09:43:50.532Z,1014.55
2018-10-12T09:44:50.471Z,1014.59
2018-10-12T09:45:50.398Z,1014.57
2018-10-12T09:46:50.328Z,1014.58
2018-10-12T09:47:50.266Z,1014.57
2018-10-12T09:48:50.187Z,1014.61
2018-10-12T09:49:50.118Z,1014.60
2018-10-12T09:50:50.048Z,1014.54
2018-10-12T09:51:49.980Z,1014.60
2018-10-12T09:52:49.954Z,1014.57
2018-10-12T09:53:49.841Z,1014.64
2018-10-12T09:54:49.770Z,1014.64
2018-10-12T09:55:49.728Z,1014.64
2018-10-12T09:56:49.630Z,1014.67
2018-10-12T09:57:49.564Z,1014.64
2018-10-12T09:58:49.490Z,1014.63
2018-10-12T09:59:49.425Z,1014.59
2018-10-12T10:00:49.353Z,1014.61
2018-10-12T10:01:49.337Z,1014.58
2018-10-12T10:02:49.224Z,1014.56
2018-10-12T10:03:49.145Z,1014.59
2018-10-12T10:04:49.077Z,1014.56
2018-10-12T10:05:49.008Z,1014.56
2018-10-12T10:06:48.955Z,1014.53
2018-10-12T10:07:49.068Z,1014.52
2018-10-12T10:08:48.925Z,1014.54
2018-10-12T10:09:48.730Z,1014.56
2018-10-12T10:10:48.664Z,1014.54
2018-10-12T10:11:48.594Z,1014.54
2018-10-12T10:12:48.527Z,1014.57
2018-10-12T10:13:48.505Z,1014.55
2018-10-12T10:14:48.384Z,1014.51
2018-10-12T10:15:48.316Z,1014.52
2018-10-12T10:16:48.246Z,1014.51
2018-10-12T10:17:48.177Z,1014.53
2018-10-12T10:18:48.109Z,1014.48
2018-10-12T10:19:48.037Z,1014.52
2018-10-12T10:20:47.969Z,1014.54
2018-10-12T10:21:47.905Z,1014.55
2018-10-12T10:22:47.846Z,1014.53
2018-10-12T10:23:47.763Z,1014.52
2018-10-12T10:24:47.696Z,1014.52
2018-10-12T10:25:47.626Z,1014.49
2018-10-12T10:26:47.554Z,1014.45
2018-10-12T10:27:47.485Z,1014.50
2018-10-12T10:28:47.419Z,1014.45
2018-10-12T10:29:47.350Z,1014.42
2018-10-12T10:30:47.279Z,1014.35
2018-10-12T10:31:47.215Z,1014.41
2018-10-12T10:32:47.143Z,1014.37
2018-10-12T10:33:47.076Z,1014.32
2018-10-12T10:34:47.004Z,1014.35
2018-10-12T10:35:46.935Z,1014.35
2018-10-12T10:36:46.868Z,1014.35
2018-10-12T10:37:46.800Z,1014.32
2018-10-12T10:38:46.733Z,1014.29
2018-10-12T10:39:46.663Z,1014.23
2018-10-12T10:40:46.592Z,1014.24
2018-10-12T10:41:46.526Z,1014.23
2018-10-12T10:42:46.456Z,1014.20
2018-10-12T10:43:46.386Z,1014.19
2018-10-12T10:44:46.318Z,1014.21
2018-10-12T10:45:46.246Z,1014.18
2018-10-12T10:46:46.194Z,1014.20
2018-10-12T10:47:46.112Z,1014.16
2018-10-12T10:48:46.045Z,1014.10
2018-10-12T10:49:45.976Z,1014.15
2018-10-12T10:50:45.906Z,1014.12
2018-10-12T10:51:45.839Z,1014.11
2018-10-12T10:52:45.773Z,1014.07
2018-10-12T10:53:45.801Z,1014.08
2018-10-12T10:54:45.636Z,1014.09
2018-10-12T10:55:45.566Z,1014.06
2018-10-12T10:56:45.500Z,1014.11
2018-10-12T10:57:45.430Z,1014.03
2018-10-12T10:58:45.359Z,1013.99
2018-10-12T10:59:45.298Z,1014.00
2018-10-12T11:00:45.235Z,1013.95
2018-10-12T11:01:45.156Z,1013.98
2018-10-12T11:02:45.089Z,1013.96
2018-10-12T11:03:45.020Z,1013.97
2018-10-12T11:04:44.950Z,1013.97
2018-10-12T11:05:44.893Z,1013.95
2018-10-12T11:06:44.817Z,1013.97
2018-10-12T11:07:44.746Z,1013.97
2018-10-12T11:08:44.681Z,1013.94
2018-10-12T11:09:44.611Z,1013.96
2018-10-12T11:10:44.548Z,1013.95
2018-10-12T11:11:44.475Z,1013.90
2018-10-12T11:12:44.478Z,1013.92
2018-10-12T11:13:44.339Z,1013.90
2018-10-12T11:14:44.269Z,1013.89
2018-10-12T11:15:44.204Z,1013.92
2018-10-12T11:16:44.137Z,1013.84
2018-10-12T11:17:44.068Z,1013.85
2018-10-12T11:18:43.999Z,1013.88
2018-10-12T11:19:43.952Z,1013.85
2018-10-12T11:20:43.866Z,1013.86
2018-10-12T11:21:43.797Z,1013.88
2018-10-12T11:22:43.726Z,1013.88
2018-10-12T11:23:43.664Z,1013.92
2018-10-12T11:24:43.619Z,1013.97
2018-10-12T11:25:43.530Z,1013.98
2018-10-12T11:26:43.474Z,1013.90
2018-10-12T11:27:43.398Z,1013.99
2018-10-12T11:28:43.325Z,1013.96
2018-10-12T11:29:43.257Z,1013.94
2018-10-12T11:30:43.192Z,1013.96
2018-10-12T11:31:43.122Z,1014.01
2018-10-12T11:32:43.078Z,1014.01
2018-10-12T11:33:42.989Z,1013.99
2018-10-12T11:34:42.920Z,1013.98
2018-10-12T11:35:42.854Z,1013.95
2018-10-12T11:36:42.788Z,1013.95
2018-10-12T11:37:42.721Z,1013.98
2018-10-12T11:38:42.653Z,1013.96
2018-10-12T11:39:42.588Z,1013.94
2018-10-12T11:40:42.520Z,1013.94
2018-10-12T11:41:42.454Z,1013.91
2018-10-12T11:42:42.386Z,1013.97
2018-10-12T11:43:42.320Z,1013.98
2018-10-12T11:44:42.298Z,1014.04
2018-10-12T11:45:42.186Z,1014.06
2018-10-12T11:46:42.122Z,1014.02
2018-10-12T11:47:42.057Z,1013.92
2018-10-12T11:48:41.989Z,1013.95
2018-10-12T11:49:41.922Z,1013.98
2018-10-12T11:50:41.855Z,1014.03
2018-10-12T11:51:41.784Z,1014.00
2018-10-12T11:52:41.725Z,1014.02
2018-10-12T11:53:41.654Z,1013.97
2018-10-12T11:54:41.591Z,1014.01
2018-10-12T11:55:41.525Z,1013.98
2018-10-12T11:56:41.455Z,1014.02
2018-10-12T11:57:41.395Z,1014.00
2018-10-12T11:58:41.322Z,1014.03
2018-10-12T11:59:41.258Z,1013.98
2018-10-12T12:00:41.193Z,1013.89
2018-10-12T12:01:41.126Z,1013.89
2018-10-12T12:02:41.059Z,1013.85
2018-10-12T12:03:40.996Z,1013.85
2018-10-12T12:04:40.928Z,1013.86